createdAt,value
2022-09-06T00:01:58.388Z,18.08
2022-09-06T00:04:26.276Z,18.10
2022-09-06T00:06:54.161Z,18.09
2022-09-06T00:09:21.924Z,18.09
2022-09-06T00:11:49.721Z,18.06
2022-09-06T00:14:17.515Z,18.04
2022-09-06T00:16:45.330Z,17.97
2022-09-06T00:19:13.123Z,17.96
2022-09-06T00:21:41.392Z,17.96
2022-09-06T00:24:09.500Z,17.94
2022-09-06T00:26:37.450Z,17.90
2022-09-06T00:29:05.186Z,17.89
2022-09-06T00:31:33.922Z,17.92
2022-09-06T00:34:01.803Z,17.95
2022-09-06T00:36:29.626Z,17.89
2022-09-06T00:38:57.639Z,17.87
2022-09-06T00:41:25.568Z,17.86
2022-09-06T00:43:53.369Z,17.83
2022-09-06T00:46:24.294Z,17.83
2022-09-06T00:48:54.589Z,17.84
2022-09-06T00:51:22.497Z,17.78
2022-09-06T00:53:50.825Z,17.81
2022-09-06T00:56:18.629Z,17.85
2022-09-06T00:58:46.430Z,17.86
2022-09-06T01:01:14.354Z,17.85
2022-09-06T01:03:42.268Z,17.85
2022-09-06T01:06:19.252Z,17.84
2022-09-06T01:09:37.526Z,17.80
2022-09-06T01:12:24.251Z,17.82
2022-09-06T01:15:04.079Z,17.85
2022-09-06T01:17:55.042Z,17.83
2022-09-06T01:20:28.471Z,17.85
2022-09-06T01:23:11.623Z,17.89
2022-09-06T01:26:03.740Z,17.88
2022-09-06T01:28:47.337Z,17.87
2022-09-06T01:31:49.334Z,17.85
2022-09-06T01:34:25.918Z,17.85
2022-09-06T01:37:09.890Z,17.87
2022-09-06T01:39:39.043Z,17.84
2022-09-06T01:42:24.177Z,17.78
2022-09-06T01:44:56.663Z,17.74
2022-09-06T01:47:59.205Z,17.74
2022-09-06T01:50:44.814Z,17.74
2022-09-06T01:53:26.067Z,17.74
2022-09-06T01:56:07.093Z,17.68
2022-09-06T01:58:46.849Z,17.69
2022-09-06T02:01:29.709Z,17.69
2022-09-06T02:04:19.417Z,17.70
2022-09-06T02:06:50.586Z,17.65
2022-09-06T02:09:22.548Z,17.65
2022-09-06T02:12:03.234Z,17.61
2022-09-06T02:14:40.550Z,17.61
2022-09-06T02:17:09.781Z,17.62
2022-09-06T02:19:41.042Z,17.60
2022-09-06T02:22:10.315Z,17.61
2022-09-06T02:24:38.526Z,17.61
2022-09-06T02:27:06.351Z,17.59
2022-09-06T02:29:34.589Z,17.60
2022-09-06T02:32:12.859Z,17.54
2022-09-06T02:34:41.207Z,17.53
2022-09-06T02:37:09.216Z,17.55
2022-09-06T02:39:37.035Z,17.57
2022-09-06T02:42:06.131Z,17.61
2022-09-06T02:44:33.991Z,17.61
2022-09-06T02:47:02.676Z,17.67
2022-09-06T02:49:31.574Z,17.68
2022-09-06T02:51:59.473Z,17.74
2022-09-06T02:54:27.500Z,17.73
2022-09-06T02:56:55.344Z,17.77
2022-09-06T02:59:23.145Z,17.76
2022-09-06T03:01:51.014Z,17.77
2022-09-06T03:04:18.823Z,17.79
2022-09-06T03:06:46.643Z,17.80
2022-09-06T03:09:14.675Z,17.83
2022-09-06T03:11:42.394Z,17.85
2022-09-06T03:14:10.214Z,17.90
2022-09-06T03:16:39.649Z,17.90
2022-09-06T03:19:07.476Z,17.94
2022-09-06T03:21:35.285Z,18.04
2022-09-06T03:24:03.262Z,18.06
2022-09-06T03:26:31.781Z,18.09
2022-09-06T03:28:59.590Z,18.13
2022-09-06T03:31:27.341Z,18.15
2022-09-06T03:33:55.107Z,18.19
2022-09-06T03:36:23.462Z,18.20
2022-09-06T03:38:52.309Z,18.21
2022-09-06T03:41:20.177Z,18.26
2022-09-06T03:43:47.946Z,18.28
2022-09-06T03:46:15.874Z,18.31
2022-09-06T03:48:43.835Z,18.33
2022-09-06T03:51:11.623Z,18.35
2022-09-06T03:53:39.403Z,18.37
2022-09-06T03:56:07.498Z,18.38
2022-09-06T03:58:35.326Z,18.40
2022-09-06T04:01:10.559Z,18.40
2022-09-06T04:03:38.620Z,18.35
2022-09-06T04:06:06.925Z,18.33
2022-09-06T04:08:34.932Z,18.29
2022-09-06T04:11:02.825Z,18.28
2022-09-06T04:13:31.054Z,18.28
2022-09-06T04:15:59.005Z,18.25
2022-09-06T04:18:27.153Z,18.21
2022-09-06T04:20:57.074Z,18.20
2022-09-06T04:23:26.093Z,18.22
2022-09-06T04:25:55.180Z,18.20
2022-09-06T04:28:23.225Z,18.19
2022-09-06T04:30:55.643Z,18.18
2022-09-06T04:33:26.963Z,18.23
2022-09-06T04:35:55.819Z,18.28
2022-09-06T04:38:27.629Z,18.28
2022-09-06T04:40:56.721Z,18.32
2022-09-06T04:43:24.628Z,18.36
2022-09-06T04:45:52.582Z,18.37
2022-09-06T04:48:20.541Z,18.35
2022-09-06T04:50:48.331Z,18.32
2022-09-06T04:53:16.179Z,18.34
2022-09-06T04:55:44.026Z,18.36
2022-09-06T04:58:11.799Z,18.38
2022-09-06T05:00:40.931Z,18.42
2022-09-06T05:03:08.876Z,18.47
2022-09-06T05:05:36.749Z,18.50
2022-09-06T05:08:04.691Z,18.52
2022-09-06T05:10:32.469Z,18.51
2022-09-06T05:13:00.265Z,18.47
2022-09-06T05:15:28.066Z,18.49
2022-09-06T05:18:04.308Z,18.51
2022-09-06T05:20:32.663Z,18.53
2022-09-06T05:23:00.466Z,18.52
2022-09-06T05:25:28.277Z,18.49
2022-09-06T05:27:56.160Z,18.49
2022-09-06T05:30:24.433Z,18.51
2022-09-06T05:32:52.367Z,18.55
2022-09-06T05:35:20.282Z,18.57
2022-09-06T05:37:48.072Z,18.63
2022-09-06T05:40:15.852Z,18.64
2022-09-06T05:42:43.692Z,18.64
2022-09-06T05:45:11.692Z,18.64
2022-09-06T05:47:39.666Z,18.67
2022-09-06T05:50:08.156Z,18.69
2022-09-06T05:52:36.400Z,18.71
2022-09-06T05:55:04.857Z,18.73
2022-09-06T05:57:32.654Z,18.76
2022-09-06T06:00:01.132Z,18.79
2022-09-06T06:02:29.028Z,18.80
2022-09-06T06:04:57.083Z,18.88
2022-09-06T06:07:24.812Z,18.92
2022-09-06T06:09:52.762Z,18.96
2022-09-06T06:12:20.503Z,18.98
2022-09-06T06:14:48.312Z,19.03
2022-09-06T06:17:16.249Z,19.06
2022-09-06T06:19:44.050Z,19.13
2022-09-06T06:22:11.928Z,19.17
2022-09-06T06:24:44.196Z,19.22
2022-09-06T06:27:11.994Z,19.28
2022-09-06T06:29:39.793Z,19.33
2022-09-06T06:32:07.914Z,19.40
2022-09-06T06:34:35.820Z,19.49
2022-09-06T06:37:03.864Z,19.56
2022-09-06T06:39:31.699Z,19.63
2022-09-06T06:42:05.275Z,19.68
2022-09-06T06:44:33.057Z,19.73
2022-09-06T06:47:03.134Z,19.80
2022-09-06T06:49:31.412Z,19.85
2022-09-06T06:51:59.264Z,19.92
2022-09-06T06:54:27.120Z,20.02
2022-09-06T06:56:55.084Z,20.08
2022-09-06T06:59:22.963Z,20.16
2022-09-06T07:01:51.771Z,20.21
2022-09-06T07:04:24.179Z,20.26
2022-09-06T07:12:31.830Z,20.46
2022-09-06T07:14:59.716Z,20.52
2022-09-06T07:17:27.494Z,20.57
2022-09-06T07:22:43.175Z,20.75
2022-09-06T07:25:11.386Z,20.79
2022-09-06T07:27:46.498Z,20.81
2022-09-06T07:30:15.327Z,20.85
2022-09-06T07:32:43.159Z,20.93
2022-09-06T07:35:11.156Z,21.05
2022-09-06T07:37:38.989Z,21.15
2022-09-06T07:40:07.214Z,21.25
2022-09-06T07:42:36.310Z,21.37
2022-09-06T07:45:05.778Z,21.48
2022-09-06T07:53:12.944Z,21.84
2022-09-06T07:55:56.913Z,21.95
2022-09-06T07:58:24.817Z,22.15
2022-09-06T08:00:52.712Z,22.35
2022-09-06T08:03:21.269Z,22.49
2022-09-06T08:11:24.291Z,22.98
2022-09-06T08:13:52.958Z,23.20
2022-09-06T08:16:21.173Z,23.27
2022-09-06T08:18:53.270Z,23.28
2022-09-06T08:21:21.282Z,23.17
2022-09-06T08:23:53.914Z,23.02
2022-09-06T08:26:22.471Z,23.19
2022-09-06T08:28:56.878Z,23.47
2022-09-06T08:31:24.844Z,23.74
2022-09-06T08:33:52.982Z,23.97
2022-09-06T08:36:20.886Z,24.19
2022-09-06T08:38:48.834Z,24.42
2022-09-06T08:41:26.202Z,24.57
2022-09-06T08:47:00.773Z,24.90
2022-09-06T08:49:30.930Z,24.87
2022-09-06T08:52:54.345Z,24.54
2022-09-06T08:56:14.364Z,24.31
2022-09-06T08:58:53.662Z,24.07
2022-09-06T09:01:26.511Z,23.89
2022-09-06T09:03:54.514Z,23.78
2022-09-06T09:06:22.292Z,23.66
2022-09-06T09:09:16.203Z,23.59
2022-09-06T09:11:45.023Z,23.56
2022-09-06T09:14:21.874Z,23.55
2022-09-06T09:16:57.015Z,23.52
2022-09-06T09:19:25.005Z,23.49
2022-09-06T09:21:53.090Z,23.39
2022-09-06T09:24:21.140Z,23.32
2022-09-06T09:26:58.144Z,23.27
2022-09-06T09:29:29.492Z,23.21
2022-09-06T09:31:58.418Z,23.11
2022-09-06T09:34:36.961Z,23.02
2022-09-06T09:40:25.527Z,22.84
2022-09-06T09:42:54.093Z,22.80
2022-09-06T09:45:24.396Z,22.80
2022-09-06T09:47:52.228Z,22.72
2022-09-06T09:50:32.756Z,22.69
2022-09-06T09:53:14.877Z,22.63
2022-09-06T09:55:43.063Z,22.56
2022-09-06T09:58:22.929Z,22.58
2022-09-06T10:00:50.820Z,22.55
2022-09-06T10:03:20.309Z,22.51
2022-09-06T10:06:02.777Z,22.48
2022-09-06T10:08:32.396Z,22.46
2022-09-06T10:11:00.341Z,22.45
2022-09-06T10:13:31.985Z,22.41
2022-09-06T10:16:00.540Z,22.42
2022-09-06T10:18:36.529Z,22.42
2022-09-06T10:21:14.777Z,22.44
2022-09-06T10:26:51.718Z,22.49
2022-09-06T10:29:34.807Z,22.49
2022-09-06T10:32:17.075Z,22.52
2022-09-06T10:34:50.860Z,22.46
2022-09-06T10:37:42.007Z,22.41
2022-09-06T10:40:11.681Z,22.43
2022-09-06T10:42:41.708Z,22.45
2022-09-06T10:45:24.845Z,22.44
2022-09-06T10:48:14.549Z,22.40
2022-09-06T10:51:03.018Z,22.42
2022-09-06T10:53:56.613Z,22.44
2022-09-06T10:56:53.434Z,22.48
2022-09-06T10:59:37.619Z,22.57
2022-09-06T11:05:40.106Z,22.76
2022-09-06T11:11:21.014Z,23.46
2022-09-06T11:13:49.139Z,23.81
2022-09-06T11:16:28.548Z,23.80
2022-09-06T11:19:06.421Z,23.77
2022-09-06T11:21:53.054Z,23.71
2022-09-06T11:24:58.269Z,23.46
2022-09-06T11:27:31.985Z,23.40
2022-09-06T11:30:00.345Z,23.31
2022-09-06T11:32:39.836Z,23.27
2022-09-06T11:35:11.196Z,23.25
2022-09-06T11:37:50.828Z,23.23
2022-09-06T11:43:00.421Z,23.23
2022-09-06T11:45:49.106Z,23.21
2022-09-06T11:48:35.003Z,23.21
2022-09-06T11:51:04.148Z,23.17
2022-09-06T11:53:33.541Z,23.21
2022-09-06T11:56:01.245Z,23.20
2022-09-06T11:59:02.964Z,23.19
2022-09-06T12:01:30.801Z,23.16
2022-09-06T12:04:06.931Z,23.16
2022-09-06T12:06:36.728Z,23.16
2022-09-06T12:09:25.181Z,23.21
2022-09-06T12:11:54.529Z,23.26
2022-09-06T12:14:29.920Z,23.29
2022-09-06T12:17:00.388Z,23.32
2022-09-06T12:19:50.258Z,23.33
2022-09-06T12:22:38.871Z,23.35
2022-09-06T12:25:09.100Z,23.32
2022-09-06T12:27:40.303Z,23.31
2022-09-06T12:30:13.290Z,23.29
2022-09-06T12:32:48.353Z,23.28
2022-09-06T12:38:15.891Z,23.30
2022-09-06T12:40:49.163Z,23.26
2022-09-06T12:43:18.102Z,23.24
2022-09-06T12:45:49.754Z,23.17
2022-09-06T12:48:38.620Z,23.13
2022-09-06T12:51:08.223Z,23.11
2022-09-06T12:53:36.069Z,23.08
2022-09-06T12:56:16.317Z,23.03
2022-09-06T12:59:18.181Z,23.03
2022-09-06T13:02:07.149Z,23.04
2022-09-06T13:04:43.881Z,23.04
2022-09-06T13:07:14.345Z,23.04
2022-09-06T13:09:44.362Z,23.05
2022-09-06T13:12:36.629Z,23.02
2022-09-06T13:15:18.238Z,22.98
2022-09-06T13:17:46.363Z,22.96
2022-09-06T13:20:29.564Z,22.92
2022-09-06T13:23:09.048Z,22.89
2022-09-06T13:25:36.936Z,22.84
2022-09-06T13:28:04.744Z,22.82
2022-09-06T13:30:35.251Z,22.77
2022-09-06T13:33:03.783Z,22.74
2022-09-06T13:35:33.202Z,22.71
2022-09-06T13:38:23.734Z,22.67
2022-09-06T13:43:46.131Z,22.62
2022-09-06T13:46:14.101Z,22.56
2022-09-06T13:48:42.742Z,22.51
2022-09-06T13:51:10.993Z,22.46
2022-09-06T13:53:38.914Z,22.42
2022-09-06T13:56:09.770Z,22.33
2022-09-06T13:58:37.890Z,22.28
2022-09-06T14:01:09.628Z,22.18
2022-09-06T14:03:38.293Z,22.10
2022-09-06T14:06:06.178Z,22.03
2022-09-06T14:08:49.763Z,22.00
2022-09-06T14:11:21.799Z,21.97
2022-09-06T14:13:49.675Z,21.96
2022-09-06T14:16:17.645Z,21.97
2022-09-06T14:18:46.347Z,21.92
2022-09-06T14:21:14.236Z,21.87
2022-09-06T14:23:42.029Z,21.84
2022-09-06T14:26:11.199Z,21.83
2022-09-06T14:28:38.990Z,21.83
2022-09-06T14:31:20.356Z,21.84
2022-09-06T14:33:48.468Z,21.84
2022-09-06T14:36:18.119Z,21.88
2022-09-06T14:38:46.187Z,21.88
2022-09-06T14:41:17.089Z,21.87
2022-09-06T14:43:45.204Z,21.84
2022-09-06T14:46:14.792Z,21.84
2022-09-06T14:48:43.286Z,21.85
2022-09-06T14:51:23.225Z,21.88
2022-09-06T14:53:53.163Z,21.86
2022-09-06T14:56:21.098Z,21.86
2022-09-06T14:58:49.151Z,21.89
2022-09-06T15:01:19.503Z,21.86
2022-09-06T15:03:49.757Z,21.86
2022-09-06T15:06:17.777Z,21.92
2022-09-06T15:08:45.727Z,21.94
2022-09-06T15:11:13.628Z,21.97
2022-09-06T15:13:41.637Z,22.00
2022-09-06T15:16:10.617Z,22.03
2022-09-06T15:18:38.496Z,22.08
2022-09-06T15:21:13.044Z,22.08
2022-09-06T15:23:41.218Z,22.11
2022-09-06T15:26:09.611Z,22.13
2022-09-06T15:28:38.375Z,22.16
2022-09-06T15:31:07.084Z,22.18
2022-09-06T15:33:36.140Z,22.17
2022-09-06T15:36:07.480Z,22.18
2022-09-06T15:38:40.962Z,22.14
2022-09-06T15:41:10.466Z,22.18
2022-09-06T15:43:43.363Z,22.18
2022-09-06T15:46:11.313Z,22.18
2022-09-06T15:48:55.779Z,22.15
2022-09-06T15:51:23.562Z,22.12
2022-09-06T15:53:51.425Z,22.10
2022-09-06T15:56:19.479Z,22.10
2022-09-06T15:58:47.397Z,22.07
2022-09-06T16:01:19.912Z,22.06
2022-09-06T16:03:50.220Z,22.01
2022-09-06T16:06:26.477Z,21.99
2022-09-06T16:09:02.723Z,21.99
2022-09-06T16:11:31.190Z,21.98
2022-09-06T16:13:59.073Z,21.97
2022-09-06T16:16:26.990Z,21.98
2022-09-06T16:18:54.905Z,21.96
2022-09-06T16:21:25.581Z,21.95
2022-09-06T16:23:58.167Z,21.92
2022-09-06T16:26:26.879Z,21.92
2022-09-06T16:28:54.973Z,21.92
2022-09-06T16:31:22.928Z,21.90
2022-09-06T16:33:51.325Z,21.82
2022-09-06T16:36:19.974Z,21.80
2022-09-06T16:38:48.168Z,21.76
2022-09-06T16:41:34.591Z,21.73
2022-09-06T16:44:02.746Z,21.70
2022-09-06T16:46:30.861Z,21.65
2022-09-06T16:49:04.341Z,21.64
2022-09-06T16:51:38.525Z,21.61
2022-09-06T16:54:06.782Z,21.54
2022-09-06T16:56:37.067Z,21.46
2022-09-06T16:59:06.758Z,21.42
2022-09-06T17:01:35.118Z,21.42
2022-09-06T17:04:03.640Z,21.39
2022-09-06T17:06:31.840Z,21.34
2022-09-06T17:08:59.965Z,21.29
2022-09-06T17:11:29.219Z,21.24
2022-09-06T17:13:58.251Z,21.22
2022-09-06T17:16:45.348Z,21.19
2022-09-06T17:19:15.040Z,21.20
2022-09-06T17:21:43.623Z,21.14
2022-09-06T17:24:11.906Z,21.10
2022-09-06T17:26:40.306Z,21.09
2022-09-06T17:29:08.400Z,21.05
2022-09-06T17:31:40.245Z,21.05
2022-09-06T17:34:08.934Z,21.03
2022-09-06T17:36:37.727Z,20.96
2022-09-06T17:39:11.291Z,20.94
2022-09-06T17:41:54.824Z,20.92
2022-09-06T17:44:27.809Z,20.90
2022-09-06T17:47:12.371Z,20.87
2022-09-06T17:49:41.029Z,20.81
2022-09-06T17:52:09.260Z,20.77
2022-09-06T17:54:37.139Z,20.74
2022-09-06T17:59:39.496Z,20.73
2022-09-06T18:02:07.287Z,20.72
2022-09-06T18:04:37.924Z,20.65
2022-09-06T18:07:18.572Z,20.56
2022-09-06T18:09:46.468Z,20.50
2022-09-06T18:12:18.706Z,20.49
2022-09-06T18:14:51.522Z,20.46
2022-09-06T18:17:25.230Z,20.45
2022-09-06T18:19:53.985Z,20.45
2022-09-06T18:22:21.825Z,20.46
2022-09-06T18:24:49.850Z,20.46
2022-09-06T18:27:17.776Z,20.44
2022-09-06T18:29:45.639Z,20.44
2022-09-06T18:32:14.434Z,20.44
2022-09-06T18:34:42.309Z,20.43
2022-09-06T18:37:15.881Z,20.39
2022-09-06T18:39:43.750Z,20.37
2022-09-06T18:42:12.519Z,20.37
2022-09-06T18:44:40.559Z,20.36
2022-09-06T18:47:09.286Z,20.35
2022-09-06T18:49:41.793Z,20.31
2022-09-06T18:52:12.159Z,20.29
2022-09-06T18:54:40.114Z,20.28
2022-09-06T18:57:08.375Z,20.29
2022-09-06T18:59:36.255Z,20.26
2022-09-06T19:02:04.304Z,20.25
2022-09-06T19:04:32.487Z,20.26
2022-09-06T19:07:02.827Z,20.20
2022-09-06T19:09:30.726Z,20.15
2022-09-06T19:11:58.690Z,20.09
2022-09-06T19:14:26.867Z,20.08
2022-09-06T19:16:55.523Z,20.05
2022-09-06T19:19:24.341Z,20.03
2022-09-06T19:21:52.222Z,19.98
2022-09-06T19:24:23.704Z,19.97
2022-09-06T19:26:51.673Z,19.92
2022-09-06T19:29:19.973Z,19.88
2022-09-06T19:31:48.343Z,19.88
2022-09-06T19:34:17.009Z,19.89
2022-09-06T19:36:45.863Z,19.88
2022-09-06T19:39:16.448Z,19.86
2022-09-06T19:41:46.057Z,19.84
2022-09-06T19:44:14.973Z,19.82
2022-09-06T19:46:45.895Z,19.79
2022-09-06T19:49:15.606Z,19.77
2022-09-06T19:51:45.005Z,19.74
2022-09-06T19:54:13.047Z,19.70
2022-09-06T19:56:40.947Z,19.72
2022-09-06T19:59:09.887Z,19.68
2022-09-06T20:01:38.572Z,19.59
2022-09-06T20:04:08.317Z,19.50
2022-09-06T20:06:36.567Z,19.45
2022-09-06T20:09:10.139Z,19.40
2022-09-06T20:11:43.105Z,19.35
2022-09-06T20:14:12.035Z,19.26
2022-09-06T20:16:43.114Z,19.19
2022-09-06T20:19:12.223Z,19.22
2022-09-06T20:21:45.223Z,19.24
2022-09-06T20:24:13.274Z,19.21
2022-09-06T20:26:41.975Z,19.22
2022-09-06T20:29:10.059Z,19.22
2022-09-06T20:31:38.303Z,19.24
2022-09-06T20:34:06.768Z,19.26
2022-09-06T20:43:28.991Z,19.18
2022-09-06T20:45:57.157Z,19.16
2022-09-06T20:48:25.015Z,19.15
2022-09-06T20:51:03.284Z,19.16
2022-09-06T20:53:31.619Z,19.17
2022-09-06T20:56:05.254Z,19.16
2022-09-06T20:58:33.516Z,19.14
2022-09-06T21:01:01.370Z,19.11
2022-09-06T21:03:29.283Z,19.12
2022-09-06T21:05:57.321Z,19.10
2022-09-06T21:08:25.224Z,19.09
2022-09-06T21:11:02.067Z,19.09
2022-09-06T21:13:30.249Z,19.10
2022-09-06T21:15:59.192Z,19.06
2022-09-06T21:18:27.925Z,19.08
2022-09-06T21:21:02.899Z,19.09
2022-09-06T21:23:31.704Z,19.08
2022-09-06T21:26:01.136Z,19.09
2022-09-06T21:28:33.683Z,19.05
2022-09-06T21:31:23.574Z,19.02
2022-09-06T21:33:55.352Z,19.00
2022-09-06T21:36:25.177Z,18.91
2022-09-06T21:38:56.834Z,18.90
2022-09-06T21:41:25.328Z,18.88
2022-09-06T21:43:54.153Z,18.87
2022-09-06T21:46:22.588Z,18.85
2022-09-06T21:48:51.764Z,18.98
2022-09-06T21:51:22.780Z,19.03
2022-09-06T21:53:51.598Z,19.04
2022-09-06T21:56:24.908Z,19.04
2022-09-06T21:58:54.054Z,19.05
2022-09-06T22:01:22.655Z,19.06
2022-09-06T22:03:50.773Z,19.02
2022-09-06T22:06:20.214Z,19.00
2022-09-06T22:08:48.357Z,19.03
2022-09-06T22:11:18.376Z,19.03
2022-09-06T22:13:46.477Z,19.07
2022-09-06T22:16:17.352Z,19.08
2022-09-06T22:18:46.058Z,19.08
2022-09-06T22:21:24.386Z,19.10
2022-09-06T22:23:56.813Z,19.10
2022-09-06T22:26:25.484Z,19.14
2022-09-06T22:28:57.719Z,19.14
2022-09-06T22:31:25.968Z,19.13
2022-09-06T22:33:54.070Z,19.11
2022-09-06T22:36:22.217Z,19.14
2022-09-06T22:38:50.087Z,19.15
2022-09-06T22:41:17.899Z,19.16
2022-09-06T22:43:45.722Z,19.17
2022-09-06T22:46:16.266Z,19.19
2022-09-06T22:48:44.111Z,19.20
2022-09-06T22:51:11.950Z,19.19
2022-09-06T22:53:40.013Z,19.22
2022-09-06T22:56:07.974Z,19.22
2022-09-06T22:58:36.621Z,19.22
2022-09-06T23:01:12.368Z,19.22
2022-09-06T23:03:40.276Z,19.21
2022-09-06T23:06:08.227Z,19.21
2022-09-06T23:08:37.273Z,19.21
2022-09-06T23:11:13.552Z,19.20
2022-09-06T23:13:44.761Z,19.19
2022-09-06T23:16:15.050Z,19.20
2022-09-06T23:18:42.979Z,19.20
2022-09-06T23:21:12.783Z,19.20
2022-09-06T23:23:43.344Z,19.18
2022-09-06T23:26:13.145Z,19.19
2022-09-06T23:28:41.005Z,19.16
2022-09-06T23:31:10.143Z,19.13
2022-09-06T23:33:38.408Z,19.08
2022-09-06T23:36:06.839Z,19.08
2022-09-06T23:38:35.360Z,19.05
2022-09-06T23:41:03.500Z,19.09
2022-09-06T23:43:31.569Z,19.08
2022-09-06T23:45:59.663Z,19.05
2022-09-06T23:48:27.441Z,19.01
2022-09-06T23:50:55.227Z,19.01
2022-09-06T23:53:23.085Z,18.95
2022-09-06T23:55:51.069Z,18.95
2022-09-06T23:58:18.920Z,18.93
